createdAt,value
2023-04-16T00:00:56.418Z,24.13
2023-04-16T00:03:59.678Z,23.00
2023-04-16T00:07:03.343Z,21.27
2023-04-16T00:10:09.243Z,24.27
2023-04-16T00:13:12.535Z,24.03
2023-04-16T00:16:17.326Z,25.50
2023-04-16T00:19:20.739Z,28.17
2023-04-16T00:22:23.959Z,25.70
2023-04-16T00:25:27.138Z,26.67
2023-04-16T00:28:30.272Z,26.53
2023-04-16T00:31:43.369Z,27.30
2023-04-16T00:34:46.489Z,25.53
2023-04-16T00:37:49.784Z,26.20
2023-04-16T00:40:52.923Z,26.60
2023-04-16T00:43:55.957Z,26.27
2023-04-16T00:47:01.359Z,26.57
2023-04-16T00:50:05.685Z,26.20
2023-04-16T00:53:09.072Z,25.70
2023-04-16T00:56:13.608Z,28.03
2023-04-16T00:59:17.430Z,27.67
2023-04-16T01:02:22.421Z,25.00
2023-04-16T01:05:26.996Z,28.07
2023-04-16T01:08:30.355Z,28.07
2023-04-16T01:11:34.076Z,26.57
2023-04-16T01:14:37.365Z,28.47
2023-04-16T01:17:41.869Z,28.77
2023-04-16T01:20:46.805Z,25.87
2023-04-16T01:23:50.129Z,28.30
2023-04-16T01:26:53.250Z,27.33
2023-04-16T01:29:58.733Z,29.47
2023-04-16T01:33:15.602Z,28.77
2023-04-16T01:36:20.467Z,28.53
2023-04-16T01:39:23.817Z,29.73
2023-04-16T01:42:30.097Z,30.67
2023-04-16T01:45:34.595Z,31.57
2023-04-16T01:48:37.661Z,30.20
2023-04-16T01:51:42.666Z,31.53
2023-04-16T01:54:46.761Z,31.43
2023-04-16T01:57:50.042Z,29.50
2023-04-16T02:00:55.361Z,31.73
2023-04-16T02:04:02.308Z,30.97
2023-04-16T02:07:08.648Z,29.93
2023-04-16T02:10:12.178Z,30.57
2023-04-16T02:13:25.930Z,28.90
2023-04-16T02:16:30.246Z,31.60
2023-04-16T02:19:40.833Z,28.40
2023-04-16T02:22:47.125Z,29.27
2023-04-16T02:25:53.740Z,29.37
2023-04-16T02:28:57.506Z,28.03
2023-04-16T02:32:11.482Z,31.93
2023-04-16T02:35:16.983Z,29.97
2023-04-16T02:38:23.115Z,31.77
2023-04-16T02:41:26.569Z,29.10
2023-04-16T02:44:29.766Z,31.00
2023-04-16T02:47:33.049Z,30.20
2023-04-16T02:50:40.512Z,30.90
2023-04-16T02:53:48.090Z,30.87
2023-04-16T02:56:59.225Z,29.07
2023-04-16T03:00:04.877Z,29.80
2023-04-16T03:03:09.912Z,31.00
2023-04-16T03:06:13.689Z,30.63
2023-04-16T03:09:19.388Z,33.30
2023-04-16T03:12:23.438Z,32.93
2023-04-16T03:15:27.409Z,35.70
2023-04-16T03:18:30.859Z,37.47
2023-04-16T03:21:34.524Z,38.73
2023-04-16T03:24:40.274Z,39.17
2023-04-16T03:27:44.060Z,40.13
2023-04-16T03:30:53.519Z,37.40
2023-04-16T03:33:59.581Z,38.20
2023-04-16T03:37:03.188Z,40.60
2023-04-16T03:40:11.216Z,37.07
2023-04-16T03:43:14.883Z,37.13
2023-04-16T03:46:19.830Z,38.07
2023-04-16T03:49:25.938Z,40.20
2023-04-16T03:52:29.343Z,40.63
2023-04-16T03:55:34.909Z,38.57
2023-04-16T03:58:41.413Z,39.10
2023-04-16T04:01:45.153Z,39.13
2023-04-16T04:04:48.890Z,37.50
2023-04-16T04:07:52.151Z,38.10
2023-04-16T04:10:57.870Z,36.90
2023-04-16T04:14:02.935Z,36.40
2023-04-16T04:17:10.564Z,37.77
2023-04-16T04:20:14.078Z,36.87
2023-04-16T04:23:20.834Z,37.53
2023-04-16T04:26:26.221Z,38.40
2023-04-16T04:29:29.502Z,38.53
2023-04-16T04:32:33.352Z,39.30
2023-04-16T04:35:37.691Z,36.13
2023-04-16T04:38:41.444Z,38.43
2023-04-16T04:41:49.760Z,36.40
2023-04-16T04:44:55.355Z,35.67
2023-04-16T04:48:54.992Z,35.63
2023-04-16T04:53:04.326Z,35.07
2023-04-16T04:56:12.316Z,35.37
2023-04-16T04:59:17.442Z,36.30
2023-04-16T05:02:20.979Z,36.03
2023-04-16T05:05:24.538Z,36.80
2023-04-16T05:08:27.620Z,36.00
2023-04-16T05:11:31.022Z,37.37
2023-04-16T05:14:38.182Z,38.20
2023-04-16T05:17:41.230Z,38.03
2023-04-16T05:20:44.193Z,36.90
2023-04-16T05:23:50.136Z,39.13
2023-04-16T05:26:53.516Z,37.70
2023-04-16T05:29:57.823Z,37.17
2023-04-16T05:33:01.188Z,36.90
2023-04-16T05:36:05.070Z,36.97
2023-04-16T05:39:08.886Z,39.47
2023-04-16T05:42:12.335Z,36.37
2023-04-16T05:45:16.621Z,36.93
2023-04-16T05:48:20.207Z,36.83
2023-04-16T05:51:25.463Z,34.80
2023-04-16T05:54:28.442Z,37.63
2023-04-16T05:57:31.407Z,36.10
2023-04-16T06:00:36.350Z,36.37
2023-04-16T06:03:45.224Z,34.40
2023-04-16T06:06:48.302Z,34.13
2023-04-16T06:09:51.254Z,34.60
2023-04-16T06:12:54.572Z,35.03
2023-04-16T06:15:59.302Z,34.37
2023-04-16T06:19:02.406Z,32.17
2023-04-16T06:22:06.513Z,32.83
2023-04-16T06:25:10.909Z,35.17
2023-04-16T06:28:13.886Z,33.03
2023-04-16T06:31:18.170Z,34.47
2023-04-16T06:34:21.287Z,34.97
2023-04-16T06:37:24.443Z,33.63
2023-04-16T06:40:27.822Z,32.63
2023-04-16T06:43:32.913Z,32.37
2023-04-16T06:46:37.387Z,34.23
2023-04-16T06:49:42.622Z,33.40
2023-04-16T06:52:45.831Z,32.90
2023-04-16T06:55:51.553Z,33.20
2023-04-16T06:58:57.126Z,32.83
2023-04-16T07:02:01.981Z,33.40
2023-04-16T07:05:06.668Z,32.97
2023-04-16T07:08:12.820Z,33.27
2023-04-16T07:11:16.335Z,32.77
2023-04-16T07:14:19.371Z,33.67
2023-04-16T07:17:23.644Z,30.77
2023-04-16T07:20:27.090Z,32.00
2023-04-16T07:23:32.847Z,33.20
2023-04-16T07:26:35.812Z,31.27
2023-04-16T07:29:41.008Z,30.47
2023-04-16T07:32:45.732Z,32.17
